Time;durP1;ratioP1;P1;durP2;ratioP2;P2;SDS_P1;SDS_P2;PMS_P1;PMS_P2;Temp;Humidity;BMP_temperature;BMP_pressure;BME280_temperature;BME280_humidity;BME280_pressure;Samples;Min_cycle;Max_cycle;Signal;HPM_P1;HPM_P2
2022/12/21 07:37:34;;;;;;;0.40;0.40;;;8.80;99.90;8.80;100844.00;;;;5034435;28;20225;-67
2022/12/21 07:40:04;;;;;;;3.10;1.33;;;8.80;99.90;9.10;100851.00;;;;5031363;28;20208;-67
2022/12/21 07:42:31;;;;;;;0.40;0.40;;;8.80;99.90;9.30;100855.00;;;;5018355;28;20201;-67
2022/12/21 07:44:57;;;;;;;0.40;0.40;;;8.90;99.90;8.80;100845.00;;;;5017101;28;20216;-68
2022/12/21 07:47:23;;;;;;;1.43;1.43;;;8.90;99.90;8.40;100848.00;;;;5003403;28;20217;-67
2022/12/21 07:49:49;;;;;;;0.40;0.40;;;8.80;99.90;8.50;100848.00;;;;5035195;28;20202;-67
2022/12/21 07:52:15;;;;;;;0.47;0.47;;;8.70;99.90;8.60;100834.00;;;;5018714;28;20232;-67
2022/12/21 07:54:41;;;;;;;0.63;0.63;;;8.60;99.90;8.20;100851.00;;;;5035935;28;20205;-69
2022/12/21 07:57:07;;;;;;;7.93;3.80;;;8.60;99.90;8.50;100844.00;;;;5035826;28;20203;-69
2022/12/21 07:59:33;;;;;;;0.40;0.40;;;8.70;99.90;8.30;100848.00;;;;5023354;28;20213;-69
2022/12/21 08:01:59;;;;;;;1.53;1.07;;;8.60;99.90;8.20;100859.00;;;;5001931;28;20239;-69
2022/12/21 08:04:25;;;;;;;0.80;0.80;;;8.60;99.90;8.20;100850.00;;;;5023774;28;20232;-69
2022/12/21 08:06:52;;;;;;;1.63;1.53;;;8.60;99.90;8.50;100878.00;;;;5012938;28;20232;-68
2022/12/21 08:09:18;;;;;;;1.23;1.13;;;8.80;99.90;8.80;100879.00;;;;5022755;28;20260;-67
2022/12/21 08:11:54;;;;;;;0.53;0.53;;;8.80;99.90;8.70;100863.00;;;;5017602;28;20227;-68
2022/12/21 08:14:21;;;;;;;1.03;1.03;;;8.90;99.90;8.60;100865.00;;;;5029163;28;20212;-69
2022/12/21 08:16:52;;;;;;;1.13;1.03;;;8.80;99.90;8.50;100873.00;;;;5001005;28;20246;-68
2022/12/21 08:19:18;;;;;;;2.57;1.87;;;8.70;99.90;8.30;100867.00;;;;5000781;28;20215;-68
2022/12/21 08:21:43;;;;;;;0.50;0.50;;;8.60;99.90;8.30;100859.00;;;;5020419;28;20201;-68
2022/12/21 08:24:12;;;;;;;0.50;0.50;;;8.60;99.90;8.20;100874.00;;;;4982083;28;20210;-69
2022/12/21 08:26:38;;;;;;;0.40;0.40;;;8.50;99.90;8.40;100863.00;;;;4987119;28;20635;-69
2022/12/21 08:29:10;;;;;;;1.17;1.17;;;8.50;99.90;8.30;100876.00;;;;5017322;28;20544;-69
2022/12/21 08:31:43;;;;;;;1.43;1.33;;;8.50;99.90;8.40;100886.00;;;;4980401;28;20224;-69
2022/12/21 08:34:14;;;;;;;2.30;2.20;;;8.50;99.90;8.30;100880.00;;;;5009344;28;20589;-68
2022/12/21 08:36:44;;;;;;;0.80;0.80;;;8.40;99.90;8.30;100894.00;;;;5006620;28;20228;-69
2022/12/21 08:39:11;;;;;;;1.93;1.80;;;8.50;99.90;8.40;100892.00;;;;5015207;28;20562;-69
2022/12/21 08:41:55;;;;;;;1.30;1.17;;;8.50;99.90;8.20;100903.00;;;;5010549;28;20256;-69
2022/12/21 08:44:23;;;;;;;2.50;2.40;;;8.50;99.90;8.20;100896.00;;;;5017051;28;20203;-68
2022/12/21 08:46:51;;;;;;;1.43;1.33;;;8.40;99.90;8.10;100887.00;;;;5017604;28;20212;-67
2022/12/21 08:49:19;;;;;;;0.63;0.63;;;8.40;99.90;8.40;100905.00;;;;5011618;28;20206;-68
2022/12/21 08:51:47;;;;;;;5.53;2.20;;;8.40;99.90;8.00;100896.00;;;;5015071;28;20219;-68
2022/12/21 08:54:15;;;;;;;2.33;2.23;;;8.40;99.90;8.00;100902.00;;;;5002951;28;20233;-68
2022/12/21 08:56:41;;;;;;;0.60;0.60;;;8.30;99.90;8.10;100900.00;;;;5001521;28;20211;-69
2022/12/21 08:59:25;;;;;;;5.77;2.33;;;8.30;99.90;8.00;100888.00;;;;5023027;28;20207;-69
2022/12/21 09:01:56;;;;;;;0.50;0.50;;;8.30;99.90;8.20;100884.00;;;;5031139;28;20219;-69
2022/12/21 09:04:34;;;;;;;2.63;2.33;;;8.30;99.90;8.30;100879.00;;;;5027027;28;20223;-69
2022/12/21 09:07:00;;;;;;;2.73;1.50;;;8.40;99.90;8.30;100873.00;;;;5029757;28;20723;-68
2022/12/21 09:09:49;;;;;;;2.60;2.43;;;8.40;99.90;8.10;100875.00;;;;4989410;28;20294;-66
2022/12/21 09:12:18;;;;;;;2.87;2.47;;;8.40;99.90;8.20;100886.00;;;;5015427;28;20214;-68
2022/12/21 09:15:21;;;;;;;1.70;1.27;;;8.40;99.90;8.30;100887.00;;;;5000390;28;20213;-69
2022/12/21 09:17:50;;;;;;;2.87;1.67;;;8.50;99.90;8.20;100833.00;;;;5010083;28;20206;-72
2022/12/21 09:20:17;;;;;;;0.60;0.60;;;8.50;99.90;8.30;100883.00;;;;5004284;28;20279;-71
2022/12/21 09:23:24;;;;;;;2.00;1.90;;;8.40;99.90;8.30;100882.00;;;;5022258;28;20218;-69
2022/12/21 09:26:08;;;;;;;7.20;3.80;;;8.50;99.90;8.30;100879.00;;;;5000893;28;20213;-69
2022/12/21 09:28:36;;;;;;;2.07;1.30;;;8.50;99.90;8.20;100873.00;;;;5014065;28;20656;-66
2022/12/21 09:31:19;;;;;;;1.77;1.67;;;8.50;99.90;8.50;100884.00;;;;5025027;28;20200;-70
2022/12/21 09:33:47;;;;;;;1.77;1.53;;;8.60;99.90;8.30;100878.00;;;;5021130;28;20564;-70
2022/12/21 09:36:15;;;;;;;1.63;1.53;;;8.60;99.90;8.30;100862.00;;;;5005720;28;20217;-71
2022/12/21 09:39:12;;;;;;;1.50;1.47;;;8.60;99.90;8.40;100866.00;;;;5015377;28;20562;-72
2022/12/21 09:42:06;;;;;;;1.10;1.00;;;8.60;99.90;8.30;100830.00;;;;5025937;28;20220;-72
2022/12/21 09:45:00;;;;;;;1.23;1.23;;;8.60;99.90;8.30;100882.00;;;;5014488;28;20225;-73
2022/12/21 09:48:11;;;;;;;0.97;0.87;;;8.60;99.90;8.50;100843.00;;;;4996606;28;20245;-68
2022/12/21 09:54:19;;;;;;;2.13;1.93;;;8.80;99.90;8.50;100872.00;;;;5024003;28;20237;-67
2022/12/21 09:57:09;;;;;;;2.73;2.50;;;8.70;99.90;8.60;100876.00;;;;5017138;28;20215;-69
2022/12/21 10:00:14;;;;;;;0.87;0.87;;;8.80;99.90;8.40;100878.00;;;;5015735;28;20221;-69
2022/12/21 10:03:31;;;;;;;3.77;3.20;;;8.70;99.90;8.60;100872.00;;;;5012451;28;20201;-69
2022/12/21 10:07:00;;;;;;;0.83;0.83;;;8.80;99.90;8.50;100874.00;;;;5009646;28;20204;-69
2022/12/21 10:09:52;;;;;;;4.03;1.03;;;8.80;99.90;8.30;100882.00;;;;5026488;28;20201;-68
2022/12/21 10:13:04;;;;;;;2.20;1.50;;;8.70;99.90;8.30;100880.00;;;;5021845;28;20227;-68
2022/12/21 10:16:06;;;;;;;6.70;2.43;;;8.70;99.90;8.50;100882.00;;;;5022117;28;20302;-68
2022/12/21 10:19:07;;;;;;;0.50;0.50;;;8.70;99.90;9.30;100872.00;;;;5020851;28;20257;-68
2022/12/21 10:34:36;;;;;;;0.30;0.30;;;8.70;99.90;8.50;100890.00;;;;5068153;28;20565;-69
2022/12/21 10:38:20;;;;;;;6.50;1.53;;;8.90;99.90;9.10;100890.00;;;;5013672;28;20269;-69
2022/12/21 10:41:25;;;;;;;2.63;2.50;;;9.10;99.90;9.10;100882.00;;;;5008947;28;20576;-70
2022/12/21 10:44:12;;;;;;;3.67;3.37;;;9.10;99.90;8.70;100878.00;;;;5004486;28;20552;-69
2022/12/21 10:46:46;;;;;;;0.40;0.40;;;9.10;99.90;9.60;100879.00;;;;5006331;28;20613;-71
2022/12/21 10:49:35;;;;;;;2.57;2.17;;;9.50;99.90;9.20;100868.00;;;;5038429;28;20270;-70
2022/12/21 10:52:52;;;;;;;0.43;0.43;;;9.40;99.90;9.30;100869.00;;;;5054343;28;20199;-70
2022/12/21 10:55:39;;;;;;;0.50;0.50;;;9.60;99.90;9.50;100814.00;;;;5029668;28;20200;-69
2022/12/21 10:58:30;;;;;;;5.30;2.87;;;9.50;99.90;9.00;100858.00;;;;5042210;28;20210;-69
2022/12/21 11:01:12;;;;;;;2.10;2.00;;;9.40;99.90;9.30;100856.00;;;;5021580;28;20255;-69
2022/12/21 11:04:52;;;;;;;3.43;3.13;;;9.30;99.90;8.80;100854.00;;;;5038824;28;20198;-69
2022/12/21 11:07:31;;;;;;;2.60;2.40;;;9.10;99.90;8.60;100849.00;;;;5008478;28;20241;-69
2022/12/21 11:10:26;;;;;;;0.77;0.77;;;9.00;99.90;9.10;100836.00;;;;5030615;28;20584;-70
2022/12/21 11:12:57;;;;;;;1.17;1.17;;;9.20;99.90;9.30;100860.00;;;;5057502;28;20681;-69
2022/12/21 11:15:30;;;;;;;3.27;2.07;;;9.20;99.90;9.30;100852.00;;;;5030782;28;20189;-68
2022/12/21 11:17:56;;;;;;;2.30;2.10;;;9.30;99.90;9.50;100846.00;;;;5015435;28;20186;-68
2022/12/21 11:20:24;;;;;;;1.17;1.17;;;9.40;99.90;8.90;100844.00;;;;5035604;28;20247;-68
2022/12/21 11:23:15;;;;;;;4.90;3.67;;;9.20;99.90;8.40;100837.00;;;;5014275;28;20181;-68
2022/12/21 11:26:22;;;;;;;0.37;0.37;;;9.00;99.90;9.20;100794.00;;;;5034271;28;20621;-68
2022/12/21 11:29:30;;;;;;;1.17;1.00;;;9.10;99.90;9.60;100831.00;;;;5019133;28;20536;-68
2022/12/21 11:32:28;;;;;;;2.43;2.20;;;9.40;99.90;9.10;100818.00;;;;5031367;28;20218;-68
2022/12/21 11:35:57;;;;;;;1.70;1.60;;;9.20;99.90;9.60;100815.00;;;;5028162;28;20202;-68
2022/12/21 11:38:41;;;;;;;6.70;2.80;;;9.30;99.90;9.30;100812.00;;;;5017587;28;20200;-68
2022/12/21 11:41:32;;;;;;;8.23;3.43;;;9.50;99.90;9.20;100757.00;;;;5018230;28;20667;-69
2022/12/21 11:43:58;;;;;;;0.70;0.50;;;9.30;99.90;8.90;100797.00;;;;5018182;28;20190;-68
2022/12/21 11:47:19;;;;;;;3.20;2.57;;;9.30;99.90;8.80;100797.00;;;;5014835;28;20673;-68
2022/12/21 11:50:17;;;;;;;1.00;0.90;;;9.10;99.90;8.80;100797.00;;;;5028898;28;20193;-68
2022/12/21 11:52:58;;;;;;;2.00;1.50;;;9.10;99.90;8.60;100791.00;;;;5005777;28;20214;-68
2022/12/21 11:55:42;;;;;;;1.03;1.03;;;9.10;99.90;9.10;100738.00;;;;5028711;28;20645;-68
2022/12/21 11:58:41;;;;;;;0.40;0.40;;;9.20;99.90;9.40;100788.00;;;;5022207;28;20217;-68
2022/12/21 12:01:31;;;;;;;2.10;1.83;;;9.30;99.90;9.00;100778.00;;;;5015762;28;20191;-69
2022/12/21 12:04:31;;;;;;;0.40;0.40;;;9.20;99.90;8.80;100770.00;;;;5006947;28;20198;-69
2022/12/21 12:07:20;;;;;;;0.90;0.77;;;9.20;99.90;9.00;100766.00;;;;5017519;28;20192;-68
2022/12/21 12:10:34;;;;;;;1.17;1.13;;;9.10;99.90;9.20;100763.00;;;;5021086;28;20195;-69
2022/12/21 12:13:38;;;;;;;1.60;1.60;;;9.30;99.90;9.00;100751.00;;;;4993512;28;20228;-69
2022/12/21 12:16:33;;;;;;;7.00;3.93;;;9.30;99.90;9.10;100697.00;;;;4996529;28;20195;-69
2022/12/21 12:19:39;;;;;;;1.67;1.57;;;9.20;99.90;8.70;100751.00;;;;4995439;28;20265;-69
2022/12/21 12:22:31;;;;;;;1.57;1.47;;;9.10;99.90;8.60;100742.00;;;;4999980;28;20192;-69
2022/12/21 12:25:42;;;;;;;0.60;0.60;;;9.00;99.90;8.70;100752.00;;;;5000777;28;20197;-69
2022/12/21 12:28:34;;;;;;;0.83;0.83;;;9.00;99.90;8.90;100753.00;;;;5027374;28;20196;-68
2022/12/21 12:31:31;;;;;;;1.73;1.63;;;9.10;99.90;8.90;100746.00;;;;5005747;28;20724;-68
2022/12/21 12:34:11;;;;;;;1.03;1.00;;;9.10;99.90;8.90;100750.00;;;;5014806;28;20278;-67
2022/12/21 12:37:08;;;;;;;0.40;0.40;;;9.10;99.90;9.10;100695.00;;;;5024002;28;20262;-67
2022/12/21 12:39:55;;;;;;;2.43;2.00;;;9.10;99.90;9.40;100745.00;;;;5030332;28;20201;-67
2022/12/21 12:42:29;;;;;;;1.73;1.63;;;9.20;99.90;8.90;100748.00;;;;5026289;28;20202;-67
